sensor_id;sensor_type;location;lat;lon;timestamp;P1;durP1;ratioP1;P2;durP2;ratioP2
14900;SDS011;7542;49.078;9.194;2023-08-06T00:00:56;0.90;;;0.90;;
14900;SDS011;7542;49.078;9.194;2023-08-06T00:01:59;1.10;;;1.02;;
14900;SDS011;7542;49.078;9.194;2023-08-06T00:03:01;0.85;;;0.82;;
14900;SDS011;7542;49.078;9.194;2023-08-06T00:04:03;1.08;;;0.80;;
14900;SDS011;7542;49.078;9.194;2023-08-06T00:05:05;0.75;;;0.68;;
14900;SDS011;7542;49.078;9.194;2023-08-06T00:06:08;0.85;;;0.85;;
14900;SDS011;7542;49.078;9.194;2023-08-06T00:07:10;0.77;;;0.77;;
14900;SDS011;7542;49.078;9.194;2023-08-06T00:08:12;0.75;;;0.75;;
14900;SDS011;7542;49.078;9.194;2023-08-06T00:09:14;0.90;;;0.90;;
14900;SDS011;7542;49.078;9.194;2023-08-06T00:10:16;0.75;;;0.75;;
14900;SDS011;7542;49.078;9.194;2023-08-06T00:11:18;1.17;;;1.10;;
14900;SDS011;7542;49.078;9.194;2023-08-06T00:12:20;0.73;;;0.73;;
14900;SDS011;7542;49.078;9.194;2023-08-06T00:13:23;1.35;;;1.00;;
14900;SDS011;7542;49.078;9.194;2023-08-06T00:14:25;0.68;;;0.68;;
14900;SDS011;7542;49.078;9.194;2023-08-06T00:15:27;0.80;;;0.80;;
14900;SDS011;7542;49.078;9.194;2023-08-06T00:16:29;0.98;;;0.98;;
14900;SDS011;7542;49.078;9.194;2023-08-06T00:17:31;0.80;;;0.80;;
14900;SDS011;7542;49.078;9.194;2023-08-06T00:18:33;0.80;;;0.80;;
14900;SDS011;7542;49.078;9.194;2023-08-06T00:19:35;0.73;;;0.73;;
14900;SDS011;7542;49.078;9.194;2023-08-06T00:20:40;0.80;;;0.65;;
14900;SDS011;7542;49.078;9.194;2023-08-06T00:21:42;2.38;;;0.93;;
14900;SDS011;7542;49.078;9.194;2023-08-06T00:22:44;0.80;;;0.80;;
14900;SDS011;7542;49.078;9.194;2023-08-06T00:23:46;0.82;;;0.82;;
14900;SDS011;7542;49.078;9.194;2023-08-06T00:24:48;0.80;;;0.80;;
14900;SDS011;7542;49.078;9.194;2023-08-06T00:25:50;0.95;;;0.95;;
14900;SDS011;7542;49.078;9.194;2023-08-06T00:26:52;0.85;;;0.85;;
14900;SDS011;7542;49.078;9.194;2023-08-06T00:27:54;0.90;;;0.90;;
14900;SDS011;7542;49.078;9.194;2023-08-06T00:28:57;0.80;;;0.80;;
14900;SDS011;7542;49.078;9.194;2023-08-06T00:29:59;1.20;;;0.85;;
14900;SDS011;7542;49.078;9.194;2023-08-06T00:31:01;0.75;;;0.75;;
14900;SDS011;7542;49.078;9.194;2023-08-06T00:32:03;0.70;;;0.70;;
14900;SDS011;7542;49.078;9.194;2023-08-06T00:33:05;2.17;;;1.10;;
14900;SDS011;7542;49.078;9.194;2023-08-06T00:34:07;1.27;;;1.17;;
14900;SDS011;7542;49.078;9.194;2023-08-06T00:35:09;0.90;;;0.90;;
14900;SDS011;7542;49.078;9.194;2023-08-06T00:36:12;0.82;;;0.82;;
14900;SDS011;7542;49.078;9.194;2023-08-06T00:37:14;1.67;;;1.13;;
14900;SDS011;7542;49.078;9.194;2023-08-06T00:38:19;0.95;;;0.77;;
14900;SDS011;7542;49.078;9.194;2023-08-06T00:39:21;0.90;;;0.90;;
14900;SDS011;7542;49.078;9.194;2023-08-06T00:40:23;0.90;;;0.90;;
14900;SDS011;7542;49.078;9.194;2023-08-06T00:41:25;0.95;;;0.95;;
14900;SDS011;7542;49.078;9.194;2023-08-06T00:42:27;0.80;;;0.80;;
14900;SDS011;7542;49.078;9.194;2023-08-06T00:43:29;1.00;;;0.95;;
14900;SDS011;7542;49.078;9.194;2023-08-06T00:44:31;1.27;;;0.88;;
14900;SDS011;7542;49.078;9.194;2023-08-06T00:45:34;1.23;;;0.90;;
14900;SDS011;7542;49.078;9.194;2023-08-06T00:46:38;0.82;;;0.82;;
14900;SDS011;7542;49.078;9.194;2023-08-06T00:47:41;0.95;;;0.95;;
14900;SDS011;7542;49.078;9.194;2023-08-06T00:48:43;0.80;;;0.80;;
14900;SDS011;7542;49.078;9.194;2023-08-06T00:49:46;1.00;;;1.00;;
14900;SDS011;7542;49.078;9.194;2023-08-06T00:50:48;0.90;;;0.90;;
14900;SDS011;7542;49.078;9.194;2023-08-06T00:51:50;0.90;;;0.90;;
14900;SDS011;7542;49.078;9.194;2023-08-06T00:52:53;0.82;;;0.82;;
14900;SDS011;7542;49.078;9.194;2023-08-06T00:53:55;1.08;;;0.95;;
14900;SDS011;7542;49.078;9.194;2023-08-06T00:54:58;1.30;;;0.65;;
14900;SDS011;7542;49.078;9.194;2023-08-06T00:56:00;0.80;;;0.80;;
14900;SDS011;7542;49.078;9.194;2023-08-06T00:57:03;0.80;;;0.80;;
14900;SDS011;7542;49.078;9.194;2023-08-06T00:58:09;0.88;;;0.88;;
14900;SDS011;7542;49.078;9.194;2023-08-06T00:59:11;1.00;;;1.00;;
14900;SDS011;7542;49.078;9.194;2023-08-06T01:00:14;1.40;;;0.80;;
14900;SDS011;7542;49.078;9.194;2023-08-06T01:01:17;1.00;;;1.00;;
14900;SDS011;7542;49.078;9.194;2023-08-06T01:02:18;0.93;;;0.90;;
14900;SDS011;7542;49.078;9.194;2023-08-06T01:03:21;0.73;;;0.73;;
14900;SDS011;7542;49.078;9.194;2023-08-06T01:04:23;1.05;;;1.05;;
14900;SDS011;7542;49.078;9.194;2023-08-06T01:05:25;0.90;;;0.90;;
14900;SDS011;7542;49.078;9.194;2023-08-06T01:06:39;0.73;;;0.73;;
14900;SDS011;7542;49.078;9.194;2023-08-06T01:13:44;1.10;;;1.08;;
14900;SDS011;7542;49.078;9.194;2023-08-06T01:14:58;0.80;;;0.80;;
14900;SDS011;7542;49.078;9.194;2023-08-06T01:16:15;0.90;;;0.90;;
14900;SDS011;7542;49.078;9.194;2023-08-06T01:17:20;0.80;;;0.80;;
14900;SDS011;7542;49.078;9.194;2023-08-06T01:18:25;0.80;;;0.80;;
14900;SDS011;7542;49.078;9.194;2023-08-06T01:19:27;0.98;;;0.98;;
14900;SDS011;7542;49.078;9.194;2023-08-06T01:20:29;2.25;;;0.70;;
14900;SDS011;7542;49.078;9.194;2023-08-06T01:21:32;0.90;;;0.90;;
14900;SDS011;7542;49.078;9.194;2023-08-06T01:22:34;1.00;;;1.00;;
14900;SDS011;7542;49.078;9.194;2023-08-06T01:23:36;1.00;;;1.00;;
14900;SDS011;7542;49.078;9.194;2023-08-06T01:24:39;0.80;;;0.80;;
14900;SDS011;7542;49.078;9.194;2023-08-06T01:25:56;1.10;;;1.00;;
14900;SDS011;7542;49.078;9.194;2023-08-06T01:27:28;0.80;;;0.80;;
14900;SDS011;7542;49.078;9.194;2023-08-06T01:31:07;0.90;;;0.90;;
14900;SDS011;7542;49.078;9.194;2023-08-06T01:32:38;0.93;;;0.93;;
14900;SDS011;7542;49.078;9.194;2023-08-06T01:33:45;1.02;;;1.02;;
14900;SDS011;7542;49.078;9.194;2023-08-06T01:34:50;1.50;;;1.50;;
14900;SDS011;7542;49.078;9.194;2023-08-06T01:35:55;0.95;;;0.95;;
14900;SDS011;7542;49.078;9.194;2023-08-06T01:36:59;0.80;;;0.80;;
14900;SDS011;7542;49.078;9.194;2023-08-06T01:38:03;1.02;;;0.95;;
14900;SDS011;7542;49.078;9.194;2023-08-06T01:39:05;1.00;;;1.00;;
14900;SDS011;7542;49.078;9.194;2023-08-06T01:40:11;1.20;;;1.20;;
14900;SDS011;7542;49.078;9.194;2023-08-06T01:41:14;1.30;;;1.20;;
14900;SDS011;7542;49.078;9.194;2023-08-06T01:42:16;1.23;;;1.23;;
14900;SDS011;7542;49.078;9.194;2023-08-06T01:43:18;0.90;;;0.90;;
14900;SDS011;7542;49.078;9.194;2023-08-06T01:44:20;0.85;;;0.85;;
14900;SDS011;7542;49.078;9.194;2023-08-06T01:45:22;1.20;;;1.02;;
14900;SDS011;7542;49.078;9.194;2023-08-06T01:46:24;1.00;;;1.00;;
14900;SDS011;7542;49.078;9.194;2023-08-06T01:47:27;1.05;;;1.05;;
14900;SDS011;7542;49.078;9.194;2023-08-06T01:48:29;1.50;;;1.10;;
14900;SDS011;7542;49.078;9.194;2023-08-06T01:49:31;0.90;;;0.90;;
14900;SDS011;7542;49.078;9.194;2023-08-06T01:50:33;1.23;;;1.00;;
14900;SDS011;7542;49.078;9.194;2023-08-06T01:51:35;1.05;;;1.00;;
14900;SDS011;7542;49.078;9.194;2023-08-06T01:52:37;0.98;;;0.98;;
14900;SDS011;7542;49.078;9.194;2023-08-06T01:53:39;1.17;;;1.17;;
14900;SDS011;7542;49.078;9.194;2023-08-06T01:54:40;1.00;;;1.00;;
14900;SDS011;7542;49.078;9.194;2023-08-06T01:55:47;1.20;;;1.20;;
14900;SDS011;7542;49.078;9.194;2023-08-06T01:56:50;1.48;;;1.27;;
14900;SDS011;7542;49.078;9.194;2023-08-06T01:57:52;1.20;;;1.03;;
14900;SDS011;7542;49.078;9.194;2023-08-06T01:58:54;1.25;;;1.25;;
14900;SDS011;7542;49.078;9.194;2023-08-06T01:59:56;1.23;;;1.20;;
14900;SDS011;7542;49.078;9.194;2023-08-06T02:00:58;1.10;;;1.10;;
14900;SDS011;7542;49.078;9.194;2023-08-06T02:02:00;1.00;;;1.00;;
14900;SDS011;7542;49.078;9.194;2023-08-06T02:03:02;1.15;;;1.13;;
14900;SDS011;7542;49.078;9.194;2023-08-06T02:04:04;3.15;;;1.20;;
14900;SDS011;7542;49.078;9.194;2023-08-06T02:05:06;1.08;;;1.08;;
14900;SDS011;7542;49.078;9.194;2023-08-06T02:06:08;1.33;;;1.10;;
14900;SDS011;7542;49.078;9.194;2023-08-06T02:07:12;1.00;;;1.00;;
14900;SDS011;7542;49.078;9.194;2023-08-06T02:08:13;1.07;;;1.07;;
14900;SDS011;7542;49.078;9.194;2023-08-06T02:09:15;1.10;;;1.10;;
14900;SDS011;7542;49.078;9.194;2023-08-06T02:10:17;1.40;;;1.30;;
14900;SDS011;7542;49.078;9.194;2023-08-06T02:11:19;1.00;;;1.00;;
14900;SDS011;7542;49.078;9.194;2023-08-06T02:12:21;1.17;;;1.10;;
14900;SDS011;7542;49.078;9.194;2023-08-06T02:13:23;4.10;;;1.40;;
14900;SDS011;7542;49.078;9.194;2023-08-06T02:14:25;1.20;;;1.20;;
14900;SDS011;7542;49.078;9.194;2023-08-06T02:15:27;1.20;;;1.20;;
14900;SDS011;7542;49.078;9.194;2023-08-06T02:16:29;1.85;;;1.10;;
14900;SDS011;7542;49.078;9.194;2023-08-06T02:17:31;1.20;;;1.10;;
14900;SDS011;7542;49.078;9.194;2023-08-06T02:18:33;1.30;;;1.23;;
14900;SDS011;7542;49.078;9.194;2023-08-06T02:19:35;2.53;;;1.13;;
14900;SDS011;7542;49.078;9.194;2023-08-06T02:20:37;1.10;;;1.00;;
14900;SDS011;7542;49.078;9.194;2023-08-06T02:21:39;0.97;;;0.97;;
14900;SDS011;7542;49.078;9.194;2023-08-06T02:22:41;1.20;;;1.20;;
14900;SDS011;7542;49.078;9.194;2023-08-06T02:23:43;1.10;;;1.10;;
14900;SDS011;7542;49.078;9.194;2023-08-06T02:24:45;1.30;;;1.23;;
14900;SDS011;7542;49.078;9.194;2023-08-06T02:25:47;2.20;;;1.20;;
14900;SDS011;7542;49.078;9.194;2023-08-06T02:26:49;1.30;;;1.20;;
14900;SDS011;7542;49.078;9.194;2023-08-06T02:27:52;1.17;;;1.10;;
14900;SDS011;7542;49.078;9.194;2023-08-06T02:28:54;1.27;;;1.23;;
14900;SDS011;7542;49.078;9.194;2023-08-06T02:29:57;2.57;;;1.30;;
14900;SDS011;7542;49.078;9.194;2023-08-06T02:30:59;1.17;;;1.17;;
14900;SDS011;7542;49.078;9.194;2023-08-06T02:32:01;1.40;;;1.30;;
14900;SDS011;7542;49.078;9.194;2023-08-06T02:33:03;1.10;;;1.10;;
14900;SDS011;7542;49.078;9.194;2023-08-06T02:34:05;1.77;;;1.00;;
14900;SDS011;7542;49.078;9.194;2023-08-06T02:35:08;1.20;;;1.20;;
14900;SDS011;7542;49.078;9.194;2023-08-06T02:36:10;1.20;;;1.20;;
14900;SDS011;7542;49.078;9.194;2023-08-06T02:37:11;1.20;;;1.20;;
14900;SDS011;7542;49.078;9.194;2023-08-06T02:38:14;1.10;;;1.10;;
14900;SDS011;7542;49.078;9.194;2023-08-06T02:39:16;1.43;;;1.43;;
14900;SDS011;7542;49.078;9.194;2023-08-06T02:40:18;1.33;;;1.27;;
14900;SDS011;7542;49.078;9.194;2023-08-06T02:41:19;1.30;;;1.30;;
14900;SDS011;7542;49.078;9.194;2023-08-06T02:42:23;1.10;;;1.10;;
14900;SDS011;7542;49.078;9.194;2023-08-06T02:43:26;1.30;;;1.30;;
14900;SDS011;7542;49.078;9.194;2023-08-06T02:44:28;1.53;;;1.47;;
14900;SDS011;7542;49.078;9.194;2023-08-06T02:45:30;1.30;;;1.30;;
14900;SDS011;7542;49.078;9.194;2023-08-06T02:46:32;1.70;;;1.60;;
14900;SDS011;7542;49.078;9.194;2023-08-06T02:47:34;1.27;;;1.27;;
14900;SDS011;7542;49.078;9.194;2023-08-06T02:48:36;1.40;;;1.30;;
14900;SDS011;7542;49.078;9.194;2023-08-06T02:49:38;1.40;;;1.40;;
14900;SDS011;7542;49.078;9.194;2023-08-06T02:50:41;1.57;;;1.47;;
14900;SDS011;7542;49.078;9.194;2023-08-06T02:51:44;1.50;;;1.40;;
14900;SDS011;7542;49.078;9.194;2023-08-06T02:52:46;1.20;;;1.20;;
14900;SDS011;7542;49.078;9.194;2023-08-06T02:53:48;1.43;;;1.33;;
14900;SDS011;7542;49.078;9.194;2023-08-06T02:54:50;1.40;;;1.40;;
14900;SDS011;7542;49.078;9.194;2023-08-06T02:55:52;1.40;;;1.30;;
14900;SDS011;7542;49.078;9.194;2023-08-06T02:56:56;1.10;;;1.10;;
14900;SDS011;7542;49.078;9.194;2023-08-06T02:57:57;1.20;;;1.20;;
14900;SDS011;7542;49.078;9.194;2023-08-06T02:58:59;1.50;;;1.40;;
14900;SDS011;7542;49.078;9.194;2023-08-06T03:00:02;1.30;;;1.30;;
14900;SDS011;7542;49.078;9.194;2023-08-06T03:01:04;1.30;;;1.30;;
14900;SDS011;7542;49.078;9.194;2023-08-06T03:02:08;1.97;;;1.50;;
14900;SDS011;7542;49.078;9.194;2023-08-06T03:03:10;1.40;;;1.40;;
14900;SDS011;7542;49.078;9.194;2023-08-06T03:04:12;1.20;;;1.20;;
14900;SDS011;7542;49.078;9.194;2023-08-06T03:05:14;1.20;;;1.20;;
14900;SDS011;7542;49.078;9.194;2023-08-06T03:06:16;1.30;;;1.30;;
14900;SDS011;7542;49.078;9.194;2023-08-06T03:07:18;1.00;;;1.00;;
14900;SDS011;7542;49.078;9.194;2023-08-06T03:08:20;1.10;;;1.10;;
14900;SDS011;7542;49.078;9.194;2023-08-06T03:09:23;1.23;;;1.20;;
14900;SDS011;7542;49.078;9.194;2023-08-06T03:10:25;1.07;;;1.03;;
14900;SDS011;7542;49.078;9.194;2023-08-06T03:11:27;1.33;;;1.33;;
14900;SDS011;7542;49.078;9.194;2023-08-06T03:12:29;1.23;;;1.23;;
14900;SDS011;7542;49.078;9.194;2023-08-06T03:13:31;1.50;;;1.40;;
14900;SDS011;7542;49.078;9.194;2023-08-06T03:14:33;1.07;;;1.07;;
14900;SDS011;7542;49.078;9.194;2023-08-06T03:15:35;1.27;;;1.27;;
14900;SDS011;7542;49.078;9.194;2023-08-06T03:16:37;1.00;;;1.00;;
14900;SDS011;7542;49.078;9.194;2023-08-06T03:17:39;1.07;;;1.07;;
14900;SDS011;7542;49.078;9.194;2023-08-06T03:18:41;1.00;;;1.00;;
14900;SDS011;7542;49.078;9.194;2023-08-06T03:19:43;1.20;;;1.20;;
14900;SDS011;7542;49.078;9.194;2023-08-06T03:20:45;1.23;;;1.20;;
14900;SDS011;7542;49.078;9.194;2023-08-06T03:21:47;0.90;;;0.90;;
14900;SDS011;7542;49.078;9.194;2023-08-06T03:22:49;1.00;;;1.00;;
14900;SDS011;7542;49.078;9.194;2023-08-06T03:23:51;1.20;;;1.10;;
14900;SDS011;7542;49.078;9.194;2023-08-06T03:24:54;1.20;;;1.20;;
14900;SDS011;7542;49.078;9.194;2023-08-06T03:25:56;0.90;;;0.90;;
14900;SDS011;7542;49.078;9.194;2023-08-06T03:27:02;1.23;;;1.13;;
14900;SDS011;7542;49.078;9.194;2023-08-06T03:28:05;1.20;;;1.10;;
14900;SDS011;7542;49.078;9.194;2023-08-06T03:29:07;1.63;;;1.20;;
14900;SDS011;7542;49.078;9.194;2023-08-06T03:30:09;1.30;;;1.10;;
14900;SDS011;7542;49.078;9.194;2023-08-06T03:31:12;1.03;;;1.03;;
14900;SDS011;7542;49.078;9.194;2023-08-06T03:32:14;1.27;;;1.00;;
14900;SDS011;7542;49.078;9.194;2023-08-06T03:33:16;1.10;;;1.10;;
14900;SDS011;7542;49.078;9.194;2023-08-06T03:34:18;1.20;;;1.20;;
14900;SDS011;7542;49.078;9.194;2023-08-06T03:35:20;1.13;;;1.13;;
14900;SDS011;7542;49.078;9.194;2023-08-06T03:36:22;1.23;;;1.00;;
14900;SDS011;7542;49.078;9.194;2023-08-06T03:37:24;1.30;;;1.20;;
14900;SDS011;7542;49.078;9.194;2023-08-06T03:38:26;1.03;;;1.03;;
14900;SDS011;7542;49.078;9.194;2023-08-06T03:39:29;1.20;;;1.20;;
14900;SDS011;7542;49.078;9.194;2023-08-06T03:40:31;1.60;;;1.50;;
14900;SDS011;7542;49.078;9.194;2023-08-06T03:41:32;0.97;;;0.97;;
14900;SDS011;7542;49.078;9.194;2023-08-06T03:42:34;1.27;;;1.20;;
14900;SDS011;7542;49.078;9.194;2023-08-06T03:43:36;1.23;;;1.23;;
14900;SDS011;7542;49.078;9.194;2023-08-06T03:44:38;1.37;;;1.37;;
14900;SDS011;7542;49.078;9.194;2023-08-06T03:45:41;1.58;;;1.20;;
14900;SDS011;7542;49.078;9.194;2023-08-06T03:46:43;1.30;;;1.20;;
14900;SDS011;7542;49.078;9.194;2023-08-06T03:47:45;1.60;;;1.50;;
14900;SDS011;7542;49.078;9.194;2023-08-06T03:48:47;1.40;;;1.30;;
14900;SDS011;7542;49.078;9.194;2023-08-06T03:49:49;0.87;;;0.87;;
14900;SDS011;7542;49.078;9.194;2023-08-06T03:50:51;1.33;;;1.10;;
14900;SDS011;7542;49.078;9.194;2023-08-06T03:51:52;0.90;;;0.90;;
14900;SDS011;7542;49.078;9.194;2023-08-06T03:52:55;1.13;;;1.13;;
14900;SDS011;7542;49.078;9.194;2023-08-06T03:53:57;1.27;;;1.17;;
14900;SDS011;7542;49.078;9.194;2023-08-06T03:54:59;1.27;;;1.27;;
14900;SDS011;7542;49.078;9.194;2023-08-06T03:56:01;1.83;;;1.40;;
14900;SDS011;7542;49.078;9.194;2023-08-06T03:57:03;1.30;;;1.20;;
14900;SDS011;7542;49.078;9.194;2023-08-06T03:58:05;1.60;;;1.30;;
14900;SDS011;7542;49.078;9.194;2023-08-06T03:59:07;1.10;;;1.10;;
14900;SDS011;7542;49.078;9.194;2023-08-06T04:00:09;1.37;;;1.37;;
14900;SDS011;7542;49.078;9.194;2023-08-06T04:01:11;1.10;;;1.10;;
14900;SDS011;7542;49.078;9.194;2023-08-06T04:02:13;1.33;;;1.23;;
14900;SDS011;7542;49.078;9.194;2023-08-06T04:03:15;1.23;;;1.23;;
14900;SDS011;7542;49.078;9.194;2023-08-06T04:04:18;1.50;;;1.40;;
14900;SDS011;7542;49.078;9.194;2023-08-06T04:05:20;1.10;;;1.10;;
14900;SDS011;7542;49.078;9.194;2023-08-06T04:06:22;0.93;;;0.93;;
14900;SDS011;7542;49.078;9.194;2023-08-06T04:07:24;1.57;;;1.50;;
14900;SDS011;7542;49.078;9.194;2023-08-06T04:08:27;1.17;;;1.17;;
14900;SDS011;7542;49.078;9.194;2023-08-06T04:09:29;1.00;;;1.00;;
14900;SDS011;7542;49.078;9.194;2023-08-06T04:10:31;1.10;;;1.10;;
14900;SDS011;7542;49.078;9.194;2023-08-06T04:11:33;1.10;;;1.10;;
14900;SDS011;7542;49.078;9.194;2023-08-06T04:12:35;1.40;;;1.30;;
14900;SDS011;7542;49.078;9.194;2023-08-06T04:13:43;1.70;;;1.23;;
14900;SDS011;7542;49.078;9.194;2023-08-06T04:14:46;1.13;;;1.13;;
14900;SDS011;7542;49.078;9.194;2023-08-06T04:15:48;1.10;;;1.00;;
14900;SDS011;7542;49.078;9.194;2023-08-06T04:16:50;1.27;;;1.17;;
14900;SDS011;7542;49.078;9.194;2023-08-06T04:17:53;1.13;;;1.10;;
14900;SDS011;7542;49.078;9.194;2023-08-06T04:18:55;1.00;;;1.00;;
14900;SDS011;7542;49.078;9.194;2023-08-06T04:19:57;1.10;;;1.10;;
14900;SDS011;7542;49.078;9.194;2023-08-06T04:21:01;1.20;;;1.20;;
14900;SDS011;7542;49.078;9.194;2023-08-06T04:22:03;0.87;;;0.87;;
14900;SDS011;7542;49.078;9.194;2023-08-06T04:23:06;1.30;;;1.20;;
14900;SDS011;7542;49.078;9.194;2023-08-06T04:24:08;1.37;;;1.37;;
14900;SDS011;7542;49.078;9.194;2023-08-06T04:25:10;1.20;;;1.10;;
14900;SDS011;7542;49.078;9.194;2023-08-06T04:26:12;1.03;;;1.03;;
14900;SDS011;7542;49.078;9.194;2023-08-06T04:27:14;0.97;;;0.97;;
14900;SDS011;7542;49.078;9.194;2023-08-06T04:28:17;1.43;;;1.00;;
14900;SDS011;7542;49.078;9.194;2023-08-06T04:29:20;1.10;;;1.10;;
14900;SDS011;7542;49.078;9.194;2023-08-06T04:30:22;1.07;;;1.07;;
14900;SDS011;7542;49.078;9.194;2023-08-06T04:31:25;1.20;;;1.10;;
14900;SDS011;7542;49.078;9.194;2023-08-06T04:32:27;1.10;;;1.10;;
14900;SDS011;7542;49.078;9.194;2023-08-06T04:33:29;0.77;;;0.77;;
14900;SDS011;7542;49.078;9.194;2023-08-06T04:34:31;1.90;;;1.10;;
14900;SDS011;7542;49.078;9.194;2023-08-06T04:35:33;1.10;;;1.10;;
14900;SDS011;7542;49.078;9.194;2023-08-06T04:36:35;1.53;;;0.90;;
14900;SDS011;7542;49.078;9.194;2023-08-06T04:37:37;0.93;;;0.93;;
14900;SDS011;7542;49.078;9.194;2023-08-06T04:38:39;1.00;;;1.00;;
14900;SDS011;7542;49.078;9.194;2023-08-06T04:39:45;1.00;;;1.00;;
14900;SDS011;7542;49.078;9.194;2023-08-06T04:40:47;1.43;;;0.90;;
14900;SDS011;7542;49.078;9.194;2023-08-06T04:41:50;0.87;;;0.80;;
14900;SDS011;7542;49.078;9.194;2023-08-06T04:42:52;1.30;;;1.30;;
14900;SDS011;7542;49.078;9.194;2023-08-06T04:43:56;0.70;;;0.70;;
14900;SDS011;7542;49.078;9.194;2023-08-06T04:44:58;0.80;;;0.80;;
14900;SDS011;7542;49.078;9.194;2023-08-06T04:46:03;1.00;;;1.00;;
14900;SDS011;7542;49.078;9.194;2023-08-06T04:47:05;0.93;;;0.93;;
14900;SDS011;7542;49.078;9.194;2023-08-06T04:48:07;0.90;;;0.90;;
14900;SDS011;7542;49.078;9.194;2023-08-06T04:49:09;1.00;;;0.90;;
14900;SDS011;7542;49.078;9.194;2023-08-06T04:50:11;0.97;;;0.97;;
14900;SDS011;7542;49.078;9.194;2023-08-06T04:51:13;0.60;;;0.60;;
14900;SDS011;7542;49.078;9.194;2023-08-06T04:52:15;0.90;;;0.90;;
14900;SDS011;7542;49.078;9.194;2023-08-06T04:53:17;1.07;;;0.97;;
14900;SDS011;7542;49.078;9.194;2023-08-06T04:54:19;0.90;;;0.83;;
14900;SDS011;7542;49.078;9.194;2023-08-06T04:55:21;0.97;;;0.97;;
14900;SDS011;7542;49.078;9.194;2023-08-06T04:56:23;0.80;;;0.80;;
14900;SDS011;7542;49.078;9.194;2023-08-06T04:57:25;1.03;;;1.03;;
14900;SDS011;7542;49.078;9.194;2023-08-06T04:58:27;0.70;;;0.70;;
14900;SDS011;7542;49.078;9.194;2023-08-06T04:59:30;0.77;;;0.73;;
14900;SDS011;7542;49.078;9.194;2023-08-06T05:00:32;2.03;;;0.80;;
14900;SDS011;7542;49.078;9.194;2023-08-06T05:01:35;0.50;;;0.50;;
14900;SDS011;7542;49.078;9.194;2023-08-06T05:02:37;0.70;;;0.70;;
14900;SDS011;7542;49.078;9.194;2023-08-06T05:03:40;0.97;;;0.80;;
14900;SDS011;7542;49.078;9.194;2023-08-06T05:04:42;0.57;;;0.57;;
14900;SDS011;7542;49.078;9.194;2023-08-06T05:05:44;1.63;;;0.60;;
14900;SDS011;7542;49.078;9.194;2023-08-06T05:06:48;0.77;;;0.77;;
14900;SDS011;7542;49.078;9.194;2023-08-06T05:07:50;0.57;;;0.50;;
14900;SDS011;7542;49.078;9.194;2023-08-06T05:08:52;0.90;;;0.60;;
14900;SDS011;7542;49.078;9.194;2023-08-06T05:09:54;0.80;;;0.80;;
14900;SDS011;7542;49.078;9.194;2023-08-06T05:10:56;1.40;;;0.60;;
14900;SDS011;7542;49.078;9.194;2023-08-06T05:12:00;0.80;;;0.80;;
14900;SDS011;7542;49.078;9.194;2023-08-06T05:13:02;1.23;;;0.90;;
14900;SDS011;7542;49.078;9.194;2023-08-06T05:14:04;0.57;;;0.57;;
14900;SDS011;7542;49.078;9.194;2023-08-06T05:15:06;0.60;;;0.57;;
14900;SDS011;7542;49.078;9.194;2023-08-06T05:16:09;1.20;;;0.60;;
14900;SDS011;7542;49.078;9.194;2023-08-06T05:17:11;1.80;;;0.60;;
14900;SDS011;7542;49.078;9.194;2023-08-06T05:18:13;2.60;;;0.57;;
14900;SDS011;7542;49.078;9.194;2023-08-06T05:19:15;0.60;;;0.60;;
14900;SDS011;7542;49.078;9.194;2023-08-06T05:20:16;0.50;;;0.50;;
14900;SDS011;7542;49.078;9.194;2023-08-06T05:21:19;0.50;;;0.50;;
14900;SDS011;7542;49.078;9.194;2023-08-06T05:22:21;0.50;;;0.50;;
14900;SDS011;7542;49.078;9.194;2023-08-06T05:23:23;1.63;;;0.50;;
14900;SDS011;7542;49.078;9.194;2023-08-06T05:24:27;0.60;;;0.60;;
14900;SDS011;7542;49.078;9.194;2023-08-06T05:25:29;0.60;;;0.60;;
14900;SDS011;7542;49.078;9.194;2023-08-06T05:26:31;0.50;;;0.50;;
14900;SDS011;7542;49.078;9.194;2023-08-06T05:27:33;0.60;;;0.60;;
14900;SDS011;7542;49.078;9.194;2023-08-06T05:28:35;0.50;;;0.40;;
14900;SDS011;7542;49.078;9.194;2023-08-06T05:29:37;0.70;;;0.70;;
14900;SDS011;7542;49.078;9.194;2023-08-06T05:30:40;0.40;;;0.40;;
14900;SDS011;7542;49.078;9.194;2023-08-06T05:31:42;3.30;;;0.60;;
14900;SDS011;7542;49.078;9.194;2023-08-06T05:32:44;0.40;;;0.40;;
14900;SDS011;7542;49.078;9.194;2023-08-06T05:33:46;0.40;;;0.40;;
14900;SDS011;7542;49.078;9.194;2023-08-06T05:34:48;0.60;;;0.60;;
14900;SDS011;7542;49.078;9.194;2023-08-06T05:35:50;0.43;;;0.43;;
14900;SDS011;7542;49.078;9.194;2023-08-06T05:36:52;1.60;;;0.50;;
14900;SDS011;7542;49.078;9.194;2023-08-06T05:37:54;0.50;;;0.50;;
14900;SDS011;7542;49.078;9.194;2023-08-06T05:38:56;1.37;;;0.70;;
14900;SDS011;7542;49.078;9.194;2023-08-06T05:39:58;1.80;;;0.47;;
14900;SDS011;7542;49.078;9.194;2023-08-06T05:41:00;0.60;;;0.40;;
14900;SDS011;7542;49.078;9.194;2023-08-06T05:42:02;0.77;;;0.40;;
14900;SDS011;7542;49.078;9.194;2023-08-06T05:43:05;1.30;;;0.53;;
14900;SDS011;7542;49.078;9.194;2023-08-06T05:44:07;0.57;;;0.43;;
14900;SDS011;7542;49.078;9.194;2023-08-06T05:45:09;0.60;;;0.60;;
14900;SDS011;7542;49.078;9.194;2023-08-06T05:46:11;0.37;;;0.37;;
14900;SDS011;7542;49.078;9.194;2023-08-06T05:47:13;0.50;;;0.50;;
14900;SDS011;7542;49.078;9.194;2023-08-06T05:48:15;1.23;;;0.60;;
14900;SDS011;7542;49.078;9.194;2023-08-06T05:49:18;0.77;;;0.40;;
14900;SDS011;7542;49.078;9.194;2023-08-06T05:50:20;0.70;;;0.70;;
14900;SDS011;7542;49.078;9.194;2023-08-06T05:51:22;0.70;;;0.50;;
14900;SDS011;7542;49.078;9.194;2023-08-06T05:52:24;0.80;;;0.50;;
14900;SDS011;7542;49.078;9.194;2023-08-06T05:53:26;0.40;;;0.40;;
14900;SDS011;7542;49.078;9.194;2023-08-06T05:54:28;1.03;;;0.40;;
14900;SDS011;7542;49.078;9.194;2023-08-06T05:55:30;0.40;;;0.40;;
14900;SDS011;7542;49.078;9.194;2023-08-06T05:56:33;0.53;;;0.53;;
14900;SDS011;7542;49.078;9.194;2023-08-06T05:57:35;0.47;;;0.47;;
14900;SDS011;7542;49.078;9.194;2023-08-06T05:58:37;0.73;;;0.53;;
14900;SDS011;7542;49.078;9.194;2023-08-06T05:59:40;0.60;;;0.40;;
14900;SDS011;7542;49.078;9.194;2023-08-06T06:00:43;0.40;;;0.40;;
14900;SDS011;7542;49.078;9.194;2023-08-06T06:01:45;0.73;;;0.40;;
14900;SDS011;7542;49.078;9.194;2023-08-06T06:02:47;0.77;;;0.40;;
14900;SDS011;7542;49.078;9.194;2023-08-06T06:03:49;0.40;;;0.40;;
14900;SDS011;7542;49.078;9.194;2023-08-06T06:04:52;0.47;;;0.47;;
14900;SDS011;7542;49.078;9.194;2023-08-06T06:05:54;1.33;;;0.47;;
14900;SDS011;7542;49.078;9.194;2023-08-06T06:06:56;0.33;;;0.30;;
14900;SDS011;7542;49.078;9.194;2023-08-06T06:07:57;0.60;;;0.40;;
14900;SDS011;7542;49.078;9.194;2023-08-06T06:08:59;0.37;;;0.37;;
14900;SDS011;7542;49.078;9.194;2023-08-06T06:10:01;0.30;;;0.30;;
14900;SDS011;7542;49.078;9.194;2023-08-06T06:11:04;1.60;;;0.40;;
14900;SDS011;7542;49.078;9.194;2023-08-06T06:12:06;0.93;;;0.40;;
14900;SDS011;7542;49.078;9.194;2023-08-06T06:13:08;2.40;;;0.50;;
14900;SDS011;7542;49.078;9.194;2023-08-06T06:14:10;1.13;;;0.40;;
14900;SDS011;7542;49.078;9.194;2023-08-06T06:15:12;0.40;;;0.40;;
14900;SDS011;7542;49.078;9.194;2023-08-06T06:16:15;0.50;;;0.50;;
14900;SDS011;7542;49.078;9.194;2023-08-06T06:17:17;1.47;;;0.40;;
14900;SDS011;7542;49.078;9.194;2023-08-06T06:18:19;0.40;;;0.40;;
14900;SDS011;7542;49.078;9.194;2023-08-06T06:19:20;2.30;;;0.30;;
14900;SDS011;7542;49.078;9.194;2023-08-06T06:20:22;0.40;;;0.40;;
14900;SDS011;7542;49.078;9.194;2023-08-06T06:21:24;1.13;;;0.50;;
14900;SDS011;7542;49.078;9.194;2023-08-06T06:22:26;1.77;;;0.60;;
14900;SDS011;7542;49.078;9.194;2023-08-06T06:23:28;2.00;;;0.40;;
14900;SDS011;7542;49.078;9.194;2023-08-06T06:24:30;0.87;;;0.43;;
14900;SDS011;7542;49.078;9.194;2023-08-06T06:25:32;1.42;;;0.50;;
14900;SDS011;7542;49.078;9.194;2023-08-06T06:26:34;1.50;;;0.60;;
14900;SDS011;7542;49.078;9.194;2023-08-06T06:27:36;1.47;;;0.70;;
14900;SDS011;7542;49.078;9.194;2023-08-06T06:28:39;0.40;;;0.40;;
14900;SDS011;7542;49.078;9.194;2023-08-06T06:29:40;3.23;;;0.67;;
14900;SDS011;7542;49.078;9.194;2023-08-06T06:30:43;2.37;;;0.70;;
14900;SDS011;7542;49.078;9.194;2023-08-06T06:31:45;0.83;;;0.43;;